Time;durP1;ratioP1;P1;durP2;ratioP2;P2;SDS_P1;SDS_P2;PMS_P1;PMS_P2;Temp;Humidity;BMP_temperature;BMP_pressure;BME280_temperature;BME280_humidity;BME280_pressure;Samples;Min_cycle;Max_cycle;Signal;HPM_P1;HPM_P2
2023/10/17 00:01:51;;;;;;;6.45;3.08;;;;;;;6.64;49.97;94365.69;5062995;28;20067;-84
2023/10/17 00:06:42;;;;;;;14.25;3.40;;;;;;;6.62;50.41;94365.94;5063991;28;20203;-83
2023/10/17 00:09:08;;;;;;;12.88;3.70;;;;;;;6.59;51.06;94363.88;5062564;28;20020;-84
2023/10/17 00:11:51;;;;;;;8.20;3.58;;;;;;;6.58;51.40;94346.38;5063877;28;20025;-84
2023/10/17 00:14:17;;;;;;;9.88;4.10;;;;;;;6.53;51.48;94343.75;5062545;28;20040;-82
2023/10/17 00:16:43;;;;;;;9.68;3.60;;;;;;;6.53;52.65;94343.75;5062782;28;20024;-82
2023/10/17 00:19:16;;;;;;;9.27;3.50;;;;;;;6.49;52.91;94345.38;5063568;28;20365;-82
2023/10/17 00:21:41;;;;;;;14.20;3.95;;;;;;;6.50;52.94;94339.03;5063595;28;20028;-82
2023/10/17 00:24:10;;;;;;;6.75;2.78;;;;;;;6.47;52.57;94344.06;5063302;28;20039;-83
2023/10/17 00:26:39;;;;;;;8.68;3.45;;;;;;;6.45;52.82;94340.91;5063493;28;20100;-83
2023/10/17 00:29:07;;;;;;;9.05;2.30;;;;;;;6.42;52.09;94336.97;5062973;28;20094;-83
2023/10/17 00:31:33;;;;;;;6.57;2.55;;;;;;;6.40;52.02;94334.56;5063127;28;20052;-84
2023/10/17 00:34:01;;;;;;;6.50;2.35;;;;;;;6.42;52.00;94339.59;5063314;28;20089;-85
2023/10/17 00:36:27;;;;;;;4.75;2.10;;;;;;;6.40;51.49;94339.09;5063589;28;20271;-85
2023/10/17 00:39:11;;;;;;;6.18;2.20;;;;;;;6.38;51.99;94336.72;5062431;28;20134;-85
2023/10/17 00:44:30;;;;;;;4.97;1.90;;;;;;;6.36;52.79;94316.88;5063218;28;20356;-86
2023/10/17 00:47:00;;;;;;;5.70;2.40;;;;;;;6.31;53.23;94323.00;5063492;28;20032;-86
2023/10/17 00:49:26;;;;;;;5.57;2.05;;;;;;;6.31;54.10;94319.53;5062375;28;20032;-87
2023/10/17 00:51:59;;;;;;;7.90;2.60;;;;;;;6.30;54.53;94315.31;5063366;28;20027;-86
2023/10/17 00:54:26;;;;;;;6.43;2.33;;;;;;;6.27;54.49;94313.22;5062146;28;20106;-88
2023/10/17 00:56:56;;;;;;;5.10;1.85;;;;;;;6.28;55.11;94314.81;5063056;28;20086;-87
2023/10/17 00:59:29;;;;;;;8.18;2.20;;;;;;;6.26;55.20;94311.66;5062035;28;20028;-86
2023/10/17 01:01:55;;;;;;;9.57;2.40;;;;;;;6.21;55.28;94321.19;5063032;28;20055;-85
2023/10/17 01:04:23;;;;;;;5.07;2.33;;;;;;;6.19;55.72;94311.94;5062971;28;20041;-86
2023/10/17 01:06:55;;;;;;;5.50;2.50;;;;;;;6.17;55.81;94316.72;5061921;28;20021;-86
2023/10/17 01:09:25;;;;;;;7.82;2.40;;;;;;;6.17;55.92;94314.09;5061850;28;20025;-83
2023/10/17 01:11:54;;;;;;;3.85;2.30;;;;;;;6.15;55.88;94314.34;5061808;28;20095;-83
2023/10/17 01:14:20;;;;;;;7.35;1.98;;;;;;;6.15;56.21;94324.16;5061596;28;20262;-84
2023/10/17 01:16:46;;;;;;;4.57;2.30;;;;;;;6.16;56.32;94317.78;5062001;28;20036;-83
2023/10/17 01:19:15;;;;;;;5.25;2.45;;;;;;;6.18;56.56;94315.66;5061267;28;20044;-84
2023/10/17 01:21:41;;;;;;;5.45;2.15;;;;;;;6.18;56.79;94323.59;5063014;28;20074;-84
2023/10/17 01:24:06;;;;;;;8.45;3.00;;;;;;;6.16;57.10;94331.00;5061680;28;20202;-84
2023/10/17 01:26:37;;;;;;;4.13;2.13;;;;;;;6.14;57.59;94328.63;5061652;28;20012;-84
2023/10/17 01:29:04;;;;;;;6.53;2.30;;;;;;;6.16;57.95;94326.50;5062991;28;20028;-84
2023/10/17 01:31:32;;;;;;;10.38;2.20;;;;;;;6.17;58.16;94322.81;5062539;28;20025;-85
2023/10/17 01:33:59;;;;;;;7.10;2.30;;;;;;;6.18;58.36;94311.13;5062719;28;20060;-83
2023/10/17 01:36:26;;;;;;;8.55;2.30;;;;;;;6.20;58.47;94310.88;5062583;28;20047;-83
2023/10/17 01:38:52;;;;;;;6.03;2.25;;;;;;;6.20;58.48;94311.66;5062622;28;20040;-83
2023/10/17 01:41:19;;;;;;;6.10;2.13;;;;;;;6.22;58.65;94320.13;5064297;28;20027;-84
2023/10/17 01:43:48;;;;;;;6.65;1.90;;;;;;;6.27;58.90;94307.91;5065306;28;20096;-84
2023/10/17 01:46:15;;;;;;;6.68;2.03;;;;;;;6.26;58.96;94311.66;5066530;28;20025;-84
2023/10/17 01:48:47;;;;;;;4.65;2.38;;;;;;;6.27;59.12;94314.03;5066466;28;20357;-85
2023/10/17 01:51:13;;;;;;;6.72;2.78;;;;;;;6.29;59.08;94316.38;5066604;28;20029;-84
2023/10/17 01:53:40;;;;;;;5.82;2.13;;;;;;;6.22;59.25;94321.97;5065133;28;20069;-83
2023/10/17 01:56:06;;;;;;;4.07;2.00;;;;;;;6.23;59.63;94318.28;5066419;28;20179;-83
2023/10/17 01:58:36;;;;;;;16.63;2.38;;;;;;;6.27;59.32;94313.22;5064885;28;20020;-83
2023/10/17 02:01:03;;;;;;;4.13;1.92;;;;;;;6.27;59.81;94313.22;5066156;28;20048;-83
2023/10/17 02:03:30;;;;;;;9.90;2.17;;;;;;;6.23;59.52;94315.63;5064966;28;20009;-85
2023/10/17 02:05:55;;;;;;;4.65;2.15;;;;;;;6.18;59.87;94321.72;5065193;28;20028;-84
2023/10/17 02:08:22;;;;;;;9.52;2.38;;;;;;;6.15;60.23;94316.22;5065953;28;20066;-84
2023/10/17 02:10:48;;;;;;;5.20;2.58;;;;;;;6.18;60.20;94305.84;5066177;28;20029;-84
2023/10/17 02:13:13;;;;;;;7.75;3.15;;;;;;;6.13;60.45;94303.25;5066314;28;20052;-84
2023/10/17 02:15:39;;;;;;;7.32;2.25;;;;;;;6.08;60.39;94313.84;5065799;28;20287;-84
2023/10/17 02:18:12;;;;;;;8.07;2.83;;;;;;;6.11;60.34;94299.31;5065806;28;20104;-84
2023/10/17 02:20:44;;;;;;;6.32;2.50;;;;;;;6.13;60.60;94308.53;5066043;28;20067;-84
2023/10/17 02:23:19;;;;;;;;;;;;;;;6.15;60.91;94310.91;5066104;28;20044;-84
2023/10/17 02:25:45;;;;;;;9.50;2.13;;;;;;;6.12;61.76;94301.66;5066005;28;19912;-85
2023/10/17 02:28:11;;;;;;;13.43;2.60;;;;;;;6.07;61.77;94307.00;5064650;28;20029;-85
2023/10/17 02:30:36;;;;;;;7.30;2.63;;;;;;;6.07;61.78;94308.84;5065663;28;20032;-85
2023/10/17 02:33:10;;;;;;;9.20;2.78;;;;;;;6.09;61.84;94296.91;5065594;28;20040;-85
2023/10/17 02:35:39;;;;;;;8.73;2.65;;;;;;;6.12;62.07;94301.66;5065674;28;20021;-83
2023/10/17 02:38:05;;;;;;;5.70;3.05;;;;;;;6.12;62.12;94291.06;5064548;28;20261;-84
2023/10/17 02:40:34;;;;;;;5.38;2.50;;;;;;;6.15;62.10;94301.13;5065430;28;20200;-84
2023/10/17 02:43:02;;;;;;;5.07;2.25;;;;;;;6.17;62.22;94303.50;5065890;28;20028;-84
2023/10/17 02:45:28;;;;;;;7.15;2.72;;;;;;;6.23;62.40;94307.69;5065307;28;20028;-84
2023/10/17 02:47:54;;;;;;;6.47;2.30;;;;;;;6.27;62.31;94310.56;5065242;28;20049;-86
2023/10/17 02:50:45;;;;;;;3.88;2.05;;;;;;;6.30;62.06;94304.72;5065116;28;20024;-85
2023/10/17 02:53:12;;;;;;;7.03;3.17;;;;;;;6.27;61.82;94302.63;5063775;28;20032;-85
2023/10/17 02:55:39;;;;;;;7.30;2.83;;;;;;;6.27;61.71;94299.97;5063743;28;20048;-85
2023/10/17 02:58:04;;;;;;;11.05;3.28;;;;;;;6.29;61.77;94301.31;5064983;28;20087;-85
2023/10/17 03:00:33;;;;;;;6.35;2.22;;;;;;;6.31;61.61;94306.31;5065029;28;20271;-84
2023/10/17 03:02:59;;;;;;;6.47;2.40;;;;;;;6.28;61.62;94291.75;5064751;28;20087;-82
2023/10/17 03:05:27;;;;;;;8.18;2.85;;;;;;;6.31;61.75;94293.06;5063452;28;20024;-83
2023/10/17 03:07:53;;;;;;;8.05;2.67;;;;;;;6.32;61.68;94310.53;5064760;28;20044;-83
2023/10/17 03:10:39;;;;;;;5.53;2.75;;;;;;;6.36;61.57;94307.06;5063661;28;20376;-83
2023/10/17 03:15:46;;;;;;;7.80;2.67;;;;;;;6.48;62.04;94314.66;5064725;28;20158;-83
2023/10/17 03:18:15;;;;;;;7.68;2.85;;;;;;;6.54;62.30;94316.22;5064610;28;20056;-84
2023/10/17 03:20:42;;;;;;;6.53;2.60;;;;;;;6.59;62.48;94307.44;5064662;28;20100;-84
2023/10/17 03:23:09;;;;;;;9.50;2.42;;;;;;;6.63;62.53;94306.63;5063439;28;20096;-84
2023/10/17 03:25:38;;;;;;;7.15;3.83;;;;;;;6.69;62.69;94302.06;5064605;28;20226;-85
2023/10/17 03:28:15;;;;;;;6.72;2.38;;;;;;;6.73;62.74;94297.00;5063442;28;20035;-85
2023/10/17 03:30:43;;;;;;;4.72;2.35;;;;;;;6.76;62.78;94299.09;5064494;28;20028;-85
2023/10/17 03:33:13;;;;;;;5.45;2.47;;;;;;;6.82;62.86;94304.09;5064510;28;20247;-85
2023/10/17 03:38:26;;;;;;;19.85;3.25;;;;;;;6.86;62.57;94300.84;5064521;28;20032;-86
2023/10/17 03:41:02;;;;;;;7.72;3.22;;;;;;;6.88;62.80;94306.66;5063238;28;20021;-87
2023/10/17 03:43:35;;;;;;;17.55;3.67;;;;;;;6.93;63.11;94311.94;5064528;28;20029;-86
2023/10/17 03:46:05;;;;;;;13.35;3.15;;;;;;;6.93;63.56;94302.13;5064284;28;20021;-86
2023/10/17 03:48:36;;;;;;;8.40;3.13;;;;;;;6.96;63.59;94293.63;5064107;28;20025;-86
2023/10/17 03:53:32;;;;;;;23.05;4.95;;;;;;;7.01;62.19;94300.75;5064010;28;20067;-86
2023/10/17 03:56:01;;;;;;;11.40;4.00;;;;;;;6.99;61.71;94302.88;5063915;28;20048;-86
2023/10/17 04:00:55;;;;;;;12.57;3.90;;;;;;;6.91;62.17;94296.31;5064108;28;20029;-85
2023/10/17 04:03:21;;;;;;;21.73;3.33;;;;;;;6.94;61.88;94305.56;5063831;28;20059;-85
2023/10/17 04:06:02;;;;;;;14.90;2.95;;;;;;;6.96;61.66;94308.72;5064069;28;20024;-86
2023/10/17 04:08:31;;;;;;;10.27;3.83;;;;;;;6.93;60.59;94301.34;5063954;28;20027;-85
2023/10/17 04:13:41;;;;;;;15.95;4.70;;;;;;;6.83;61.43;94307.50;5063633;28;20074;-84
2023/10/17 04:16:10;;;;;;;13.25;4.15;;;;;;;6.85;61.82;94301.94;5063729;28;20029;-85
2023/10/17 04:18:37;;;;;;;11.10;3.60;;;;;;;6.87;62.16;94299.81;5062250;28;20036;-84
2023/10/17 04:21:27;;;;;;;15.75;3.45;;;;;;;6.89;61.72;94298.44;5063922;28;20092;-85
2023/10/17 04:23:55;;;;;;;10.45;3.67;;;;;;;6.89;61.34;94298.44;5063282;28;20104;-85
2023/10/17 04:26:27;;;;;;;22.40;4.20;;;;;;;6.89;61.04;94293.16;5063675;28;20029;-89
2023/10/17 04:29:00;;;;;;;16.50;5.18;;;;;;;6.90;61.15;94299.22;5063577;28;20035;-89
2023/10/17 04:31:29;;;;;;;17.20;4.78;;;;;;;6.92;61.33;94305.84;5065184;28;20033;-90
2023/10/17 04:34:06;;;;;;;12.75;4.05;;;;;;;6.97;61.66;94300.50;5065023;28;20025;-88
2023/10/17 04:36:37;;;;;;;11.30;3.95;;;;;;;7.00;61.69;94297.31;5063806;28;20028;-88
2023/10/17 04:39:48;;;;;;;9.68;4.13;;;;;;;7.05;61.57;94290.38;5063756;28;20040;-90
2023/10/17 04:44:25;;;;;;;12.20;3.95;;;;;;;7.18;61.20;94289.69;5063709;28;20032;-88
2023/10/17 04:49:35;;;;;;;16.35;4.25;;;;;;;7.23;60.25;94287.00;5063532;28;20204;-86
2023/10/17 04:52:06;;;;;;;23.77;4.45;;;;;;;7.17;60.59;94293.44;5063507;28;20024;-86
2023/10/17 04:57:15;;;;;;;13.27;4.15;;;;;;;7.20;60.80;94276.94;5063174;28;20055;-86
2023/10/17 04:59:43;;;;;;;16.80;4.28;;;;;;;7.27;61.14;94285.38;5063106;28;20047;-87
2023/10/17 06:18:48;;;;;;;10.52;3.22;;;;;;;9.38;58.23;94318.53;5029408;28;20205;-86
2023/10/17 06:21:35;;;;;;;9.90;3.65;;;;;;;9.53;57.65;94327.34;5066342;28;20223;-83
2023/10/17 06:24:06;;;;;;;9.00;3.22;;;;;;;9.71;57.34;94321.13;5064976;28;20196;-81
2023/10/17 06:26:47;;;;;;;17.77;3.55;;;;;;;9.82;56.89;94319.06;5066002;28;20200;-81
2023/10/17 06:34:20;;;;;;;7.45;2.53;;;;;;;10.20;55.29;94324.94;5065992;28;20028;-77
2023/10/17 06:36:50;;;;;;;14.18;3.60;;;;;;;10.29;54.61;94329.56;5064364;28;20088;-78
2023/10/17 06:39:17;;;;;;;9.30;4.68;;;;;;;10.36;53.51;94321.97;5065715;28;20040;-77
2023/10/17 06:41:47;;;;;;;15.80;3.22;;;;;;;10.46;53.60;94327.06;5064444;28;20025;-78
2023/10/17 06:44:21;;;;;;;6.35;3.05;;;;;;;10.53;53.16;94327.44;5065552;28;20067;-78
2023/10/17 06:46:57;;;;;;;7.53;3.08;;;;;;;10.61;53.57;94337.41;5065726;28;20023;-77
2023/10/17 06:54:43;;;;;;;9.02;2.42;;;;;;;10.93;53.87;94335.63;5065601;28;20017;-77
2023/10/17 06:57:23;;;;;;;;;;;;;;;11.11;53.98;94338.38;5066122;28;20091;-75
2023/10/17 06:59:54;;;;;;;16.65;3.95;;;;;;;11.21;55.72;94336.28;5064103;28;19935;-76
2023/10/17 07:02:34;;;;;;;36.30;5.20;;;;;;;11.36;55.92;94334.31;5064972;28;20023;-75
2023/10/17 07:05:01;;;;;;;31.80;4.15;;;;;;;11.54;54.77;94324.47;5065564;28;20091;-75
2023/10/17 07:07:31;;;;;;;11.25;4.20;;;;;;;11.66;53.06;94324.69;5065110;28;20055;-75
2023/10/17 07:10:16;;;;;;;14.77;4.60;;;;;;;11.77;53.35;94315.31;5065275;28;20025;-75
2023/10/17 07:12:50;;;;;;;11.05;3.40;;;;;;;11.90;53.58;94311.00;5065615;28;20033;-75
2023/10/17 07:15:19;;;;;;;19.90;3.83;;;;;;;12.05;52.74;94309.78;5065299;28;20049;-75
2023/10/17 07:18:39;;;;;;;15.88;3.10;;;;;;;12.19;51.05;94304.28;5064913;28;20104;-74
2023/10/17 07:23:48;;;;;;;15.13;3.15;;;;;;;12.41;51.12;94308.75;4983935;28;20022;-75
2023/10/17 07:26:17;;;;;;;7.68;3.00;;;;;;;12.52;50.75;94304.66;4984064;28;20037;-74
2023/10/17 07:28:50;;;;;;;13.85;2.25;;;;;;;12.54;49.60;94299.78;5026433;28;20032;-74
2023/10/17 07:31:16;;;;;;;8.90;2.63;;;;;;;12.57;49.99;94296.47;5064100;28;20199;-80
2023/10/17 07:33:43;;;;;;;17.63;2.40;;;;;;;12.60;49.54;94298.53;5064486;28;20350;-81
2023/10/17 07:36:15;;;;;;;7.57;2.10;;;;;;;12.64;47.73;94298.69;5064711;28;20381;-81
2023/10/17 07:38:44;;;;;;;11.70;2.00;;;;;;;12.58;47.65;94295.38;5064522;28;20024;-82
2023/10/17 07:41:13;;;;;;;6.38;2.40;;;;;;;12.55;48.07;94298.69;5064516;28;20029;-81
2023/10/17 07:43:44;;;;;;;13.15;2.45;;;;;;;12.53;47.91;94298.22;5064615;28;20028;-81
2023/10/17 07:46:19;;;;;;;5.78;2.03;;;;;;;12.60;47.64;94292.41;5065064;28;20032;-81
2023/10/17 07:48:50;;;;;;;7.50;1.98;;;;;;;12.67;47.08;94295.38;5064501;28;20023;-83
2023/10/17 07:51:16;;;;;;;8.20;2.20;;;;;;;12.74;47.49;94281.53;5065141;28;20028;-82
2023/10/17 07:53:48;;;;;;;7.47;1.80;;;;;;;12.88;46.71;94292.84;5063698;28;20028;-83
2023/10/17 07:56:24;;;;;;;8.43;2.22;;;;;;;12.95;45.90;94289.72;5065343;28;20084;-86
2023/10/17 07:58:56;;;;;;;3.95;1.65;;;;;;;13.04;45.11;94285.91;5065233;28;20041;-83
2023/10/17 08:01:31;;;;;;;;;;;;;;;13.02;45.25;94287.31;5063449;28;20021;-84
2023/10/17 08:03:57;;;;;;;8.13;2.30;;;;;;;12.97;45.15;94282.16;5063953;28;20233;-82
2023/10/17 08:06:23;;;;;;;6.30;2.20;;;;;;;13.02;45.89;94285.44;5064256;28;20024;-82
2023/10/17 08:08:50;;;;;;;14.90;2.53;;;;;;;13.09;45.25;94286.84;5064174;28;20028;-82
2023/10/17 08:11:28;;;;;;;13.52;3.17;;;;;;;13.07;44.68;94289.03;5064588;28;20086;-81
2023/10/17 08:14:03;;;;;;;8.43;2.35;;;;;;;13.03;45.00;94283.56;5063809;28;20040;-82
2023/10/17 08:16:32;;;;;;;5.18;2.25;;;;;;;12.97;44.78;94282.94;5064127;28;20025;-80
2023/10/17 08:20:00;;;;;;;9.15;2.00;;;;;;;12.94;44.84;94290.81;5063849;28;20052;-80
2023/10/17 08:22:18;;;;;;;14.40;2.00;;;;;;;12.91;44.88;94292.22;5053225;28;20025;-80
2023/10/17 08:27:17;;;;;;;9.70;2.67;;;;;;;12.90;44.98;94290.63;5064003;28;20036;-79
2023/10/17 08:29:45;;;;;;;9.30;2.33;;;;;;;12.88;44.98;94298.19;5065105;28;20017;-80
2023/10/17 08:34:45;;;;;;;7.40;2.50;;;;;;;12.91;45.06;94286.88;5062520;28;20050;-82
2023/10/17 08:37:11;;;;;;;10.50;3.00;;;;;;;12.93;45.36;94287.34;5062818;28;20025;-80
2023/10/17 08:42:11;;;;;;;12.73;2.38;;;;;;;13.03;45.41;94288.91;5068641;28;20020;-82
2023/10/17 08:44:39;;;;;;;11.38;3.20;;;;;;;12.98;44.96;94281.81;5067406;28;20096;-83
2023/10/17 08:47:04;;;;;;;8.38;2.22;;;;;;;12.92;45.18;94288.44;5065506;28;20231;-79
2023/10/17 08:49:31;;;;;;;8.07;2.17;;;;;;;12.91;45.52;94292.22;5063060;28;20032;-80
2023/10/17 08:52:00;;;;;;;9.55;2.25;;;;;;;12.96;44.97;94293.94;5063548;28;20024;-80
2023/10/17 08:54:28;;;;;;;12.32;3.10;;;;;;;13.00;45.10;94297.56;5064847;28;20092;-82
2023/10/17 08:56:54;;;;;;;15.02;2.67;;;;;;;13.05;45.24;94298.19;5064583;28;20021;-81
2023/10/17 09:02:15;;;;;;;8.07;2.05;;;;;;;13.14;44.66;94298.16;5064693;28;20028;-81
2023/10/17 09:04:44;;;;;;;8.52;2.20;;;;;;;13.15;44.89;94293.63;5063039;28;20025;-82
2023/10/17 09:07:18;;;;;;;5.88;2.00;;;;;;;13.14;45.01;94294.72;5064915;28;20032;-81
2023/10/17 09:09:47;;;;;;;6.85;2.08;;;;;;;13.11;45.03;94290.78;5066298;28;20032;-81
2023/10/17 09:12:19;;;;;;;4.47;1.52;;;;;;;13.18;44.97;94287.63;5065676;28;20307;-80
2023/10/17 09:14:49;;;;;;;5.07;1.65;;;;;;;13.23;44.68;94287.47;5065077;28;20040;-81
2023/10/17 09:17:28;;;;;;;12.85;2.30;;;;;;;13.25;44.82;94280.69;5064774;28;20326;-81
2023/10/17 09:19:56;;;;;;;4.63;1.45;;;;;;;13.37;45.28;94271.22;5063539;28;20037;-82
2023/10/17 09:22:22;;;;;;;8.98;2.63;;;;;;;13.39;44.81;94271.66;5064701;28;20032;-80
2023/10/17 09:24:50;;;;;;;15.35;4.07;;;;;;;13.42;45.21;94263.78;5066496;28;20039;-80
2023/10/17 09:27:19;;;;;;;10.45;2.35;;;;;;;13.51;44.30;94268.31;5067645;28;20139;-81
2023/10/17 09:29:55;;;;;;;9.60;2.50;;;;;;;13.51;44.36;94263.75;5067979;28;20070;-82
2023/10/17 09:32:38;;;;;;;9.93;3.50;;;;;;;13.51;44.77;94260.28;5066647;28;20025;-82
2023/10/17 09:35:13;;;;;;;6.85;2.58;;;;;;;13.51;45.05;94255.72;5065782;28;20056;-81
2023/10/17 09:37:43;;;;;;;12.88;2.40;;;;;;;13.46;45.30;94247.09;5066357;28;20028;-79
2023/10/17 09:40:12;;;;;;;8.27;2.50;;;;;;;13.50;44.98;94245.34;5064627;28;20052;-80
2023/10/17 09:42:46;;;;;;;8.65;1.80;;;;;;;13.50;44.78;94248.81;5064729;28;20016;-81
2023/10/17 09:45:13;;;;;;;13.13;3.00;;;;;;;13.56;44.96;94246.75;5064486;28;20315;-81
2023/10/17 09:47:51;;;;;;;9.68;3.38;;;;;;;13.60;44.68;94234.28;5067733;28;20032;-82
2023/10/17 09:50:17;;;;;;;10.75;2.95;;;;;;;13.58;45.10;94233.81;5067088;28;20016;-82
2023/10/17 09:52:45;;;;;;;23.05;2.60;;;;;;;13.53;45.05;94231.31;5070111;28;20017;-85
2023/10/17 09:55:13;;;;;;;6.30;2.50;;;;;;;13.53;44.43;94228.63;5069111;28;20070;-81
2023/10/17 09:57:47;;;;;;;6.38;1.83;;;;;;;13.54;44.49;94238.25;5070143;28;20033;-82
2023/10/17 10:00:28;;;;;;;4.80;1.80;;;;;;;13.52;44.22;94230.53;5069733;28;20025;-83
2023/10/17 10:02:56;;;;;;;5.00;2.10;;;;;;;13.52;44.30;94237.78;5071823;28;20020;-81
2023/10/17 10:05:28;;;;;;;7.13;2.53;;;;;;;13.38;44.29;94225.38;5070259;28;20017;-80
2023/10/17 10:07:54;;;;;;;12.30;2.33;;;;;;;13.25;44.26;94227.13;5070773;28;20108;-82
2023/10/17 10:10:44;;;;;;;6.40;2.50;;;;;;;13.17;44.47;94217.25;5069982;28;20025;-83
2023/10/17 10:13:13;;;;;;;12.00;3.30;;;;;;;13.13;44.79;94220.91;5067838;28;20031;-85
2023/10/17 10:15:59;;;;;;;9.55;2.08;;;;;;;13.07;44.70;94224.81;5067759;28;20258;-84
2023/10/17 10:18:42;;;;;;;10.82;2.60;;;;;;;13.11;44.29;94225.75;5068454;28;20028;-85
2023/10/17 10:21:08;;;;;;;10.27;3.75;;;;;;;13.13;44.64;94223.56;5065893;28;20044;-83
2023/10/17 10:23:41;;;;;;;11.18;2.30;;;;;;;13.17;44.56;94219.94;5066543;28;20070;-87
2023/10/17 10:26:12;;;;;;;11.93;2.60;;;;;;;13.25;44.26;94218.31;5069601;28;19908;-85
2023/10/17 10:28:38;;;;;;;21.48;3.40;;;;;;;13.26;44.29;94219.88;5067732;28;20027;-84
2023/10/17 10:31:23;;;;;;;14.35;3.63;;;;;;;13.35;44.26;94219.88;5070062;28;20103;-87
2023/10/17 10:33:50;;;;;;;8.15;2.45;;;;;;;13.40;43.82;94209.78;5072327;28;20049;-85
2023/10/17 10:36:19;;;;;;;13.40;3.20;;;;;;;13.44;43.99;94207.25;5072416;28;20033;-88
2023/10/17 10:38:45;;;;;;;13.48;3.75;;;;;;;13.39;44.58;94216.25;5074030;28;20021;-78
2023/10/17 10:41:15;;;;;;;9.73;2.83;;;;;;;13.44;44.27;94218.75;5069691;28;20044;-81
2023/10/17 10:43:44;;;;;;;15.18;2.67;;;;;;;13.48;44.13;94221.56;5065368;28;20017;-81
2023/10/17 10:46:17;;;;;;;7.38;2.58;;;;;;;13.55;44.40;94211.13;5064319;28;20048;-81
2023/10/17 10:48:51;;;;;;;23.77;2.65;;;;;;;13.63;44.11;94220.22;5065078;28;20218;-81
2023/10/17 10:51:17;;;;;;;5.65;2.30;;;;;;;13.72;43.98;94212.94;5065070;28;20021;-82
2023/10/17 10:53:46;;;;;;;12.82;2.15;;;;;;;13.82;44.29;94204.53;5063653;28;20069;-82
2023/10/17 10:56:11;;;;;;;9.48;2.33;;;;;;;13.93;44.24;94212.19;5064966;28;20021;-82
2023/10/17 10:58:47;;;;;;;9.10;2.13;;;;;;;14.04;44.54;94218.72;5064760;28;20021;-82
2023/10/17 11:01:13;;;;;;;11.75;2.63;;;;;;;14.04;44.75;94216.84;5064853;28;20323;-82
2023/10/17 11:03:43;;;;;;;11.63;2.85;;;;;;;14.02;45.31;94207.53;5062659;28;20032;-82
2023/10/17 11:06:09;;;;;;;8.13;2.72;;;;;;;14.03;44.76;94193.03;5063088;28;20044;-82
2023/10/17 11:08:37;;;;;;;13.38;3.58;;;;;;;14.04;45.47;94191.91;5061812;28;20253;-82
2023/10/17 11:11:03;;;;;;;10.65;3.63;;;;;;;14.05;45.39;94191.59;5062908;28;20031;-82
2023/10/17 11:13:48;;;;;;;18.38;3.33;;;;;;;13.99;45.91;94192.13;5062169;28;20024;-82
2023/10/17 11:16:21;;;;;;;11.13;3.28;;;;;;;13.98;46.48;94187.88;5061814;28;20188;-82
2023/10/17 11:18:48;;;;;;;13.07;3.30;;;;;;;13.96;45.67;94177.50;5064273;28;20070;-81
2023/10/17 11:21:18;;;;;;;9.23;3.20;;;;;;;13.96;45.94;94179.38;5064600;28;20088;-81
2023/10/17 11:24:00;;;;;;;7.80;2.65;;;;;;;14.03;45.58;94171.59;5064396;28;20234;-81
2023/10/17 11:26:30;;;;;;;17.40;2.67;;;;;;;14.10;45.61;94166.50;5065506;28;20139;-81
2023/10/17 11:28:58;;;;;;;6.85;3.38;;;;;;;14.15;45.39;94160.16;5064511;28;20083;-81
2023/10/17 11:31:26;;;;;;;19.42;2.75;;;;;;;14.18;45.00;94157.59;5064283;28;20025;-82
2023/10/17 11:34:23;;;;;;;13.65;3.90;;;;;;;14.19;45.05;94150.38;5064209;28;20032;-82
2023/10/17 11:36:54;;;;;;;13.13;3.10;;;;;;;14.15;44.38;94147.53;5063905;28;20231;-81
2023/10/17 11:39:20;;;;;;;5.72;2.72;;;;;;;14.13;44.65;94149.78;5063930;28;20027;-81
2023/10/17 11:41:46;;;;;;;8.38;2.78;;;;;;;14.05;44.02;94142.59;5064205;28;20029;-81
2023/10/17 11:44:13;;;;;;;7.10;2.53;;;;;;;14.02;44.20;94138.66;5063835;28;20037;-81
2023/10/17 11:46:38;;;;;;;13.48;2.15;;;;;;;14.02;44.03;94127.94;5063902;28;20048;-81
2023/10/17 11:49:20;;;;;;;12.27;3.28;;;;;;;13.99;43.86;94131.28;5063782;28;20211;-81
2023/10/17 11:52:09;;;;;;;8.65;3.80;;;;;;;13.92;43.90;94124.88;5063904;28;20017;-81
2023/10/17 11:55:00;;;;;;;14.52;3.05;;;;;;;13.82;43.74;94128.75;5063756;28;20223;-80
2023/10/17 11:57:27;;;;;;;11.20;2.17;;;;;;;13.80;43.73;94112.97;5063721;28;20032;-80
2023/10/17 12:00:19;;;;;;;13.95;3.17;;;;;;;13.82;44.40;94121.47;5063880;28;20078;-82
2023/10/17 12:02:48;;;;;;;14.85;2.95;;;;;;;13.81;43.94;94132.50;5063745;28;20020;-83
2023/10/17 12:05:18;;;;;;;20.30;4.82;;;;;;;13.81;43.49;94130.59;5063706;28;20025;-83
2023/10/17 12:07:53;;;;;;;11.00;2.60;;;;;;;13.76;43.68;94124.66;5063724;28;20021;-82
2023/10/17 12:10:19;;;;;;;7.80;2.78;;;;;;;13.70;43.73;94126.75;5062495;28;20024;-83
2023/10/17 12:12:45;;;;;;;12.57;2.95;;;;;;;13.68;43.87;94129.00;5063883;28;20076;-82
2023/10/17 12:15:13;;;;;;;12.43;2.65;;;;;;;13.61;43.97;94126.81;5063825;28;20021;-82
2023/10/17 12:17:40;;;;;;;7.60;2.35;;;;;;;13.55;44.22;94122.75;5063187;28;20057;-82
2023/10/17 12:20:12;;;;;;;6.45;2.42;;;;;;;13.58;44.25;94121.34;5063491;28;20028;-83
2023/10/17 12:22:39;;;;;;;8.60;2.80;;;;;;;13.58;44.35;94115.97;5063448;28;20087;-82
2023/10/17 12:25:05;;;;;;;9.68;2.50;;;;;;;13.56;44.11;94116.28;5061910;28;20029;-83
2023/10/17 12:27:31;;;;;;;8.00;2.60;;;;;;;13.51;44.53;94111.13;5063230;28;20048;-82
2023/10/17 12:29:56;;;;;;;8.82;2.38;;;;;;;13.47;44.52;94122.81;5063140;28;20032;-82
2023/10/17 12:32:22;;;;;;;6.28;1.80;;;;;;;13.39;44.54;94108.34;5063061;28;20179;-81
2023/10/17 12:34:49;;;;;;;4.68;1.88;;;;;;;13.32;44.87;94114.22;5062230;28;20041;-83
2023/10/17 12:37:17;;;;;;;10.45;2.30;;;;;;;13.23;45.00;94105.44;5063645;28;20016;-82
2023/10/17 12:39:43;;;;;;;8.07;2.08;;;;;;;13.18;45.30;94101.03;5062919;28;20092;-82
2023/10/17 12:42:09;;;;;;;5.63;1.92;;;;;;;13.09;45.70;94096.84;5063315;28;20576;-84
2023/10/17 12:44:36;;;;;;;10.65;2.53;;;;;;;13.04;45.91;94106.63;5063009;28;20017;-85
2023/10/17 12:47:01;;;;;;;5.45;2.28;;;;;;;13.03;46.29;94107.72;5061843;28;20053;-83
2023/10/17 12:49:27;;;;;;;7.93;2.55;;;;;;;12.98;46.66;94102.56;5063010;28;20023;-83
2023/10/17 12:51:53;;;;;;;7.20;2.63;;;;;;;13.00;46.88;94103.00;5062973;28;20021;-83
2023/10/17 12:54:19;;;;;;;12.20;2.63;;;;;;;13.04;46.64;94119.22;5061995;28;20036;-83
2023/10/17 12:56:44;;;;;;;7.50;1.80;;;;;;;13.05;47.12;94107.41;5061574;28;20384;-84
2023/10/17 12:59:12;;;;;;;31.23;3.47;;;;;;;13.07;46.83;94102.53;5062986;28;20298;-85
2023/10/17 13:01:39;;;;;;;10.38;2.08;;;;;;;13.08;47.01;94105.97;5062818;28;20025;-83
2023/10/17 13:04:05;;;;;;;7.75;2.53;;;;;;;13.09;47.10;94113.69;5062645;28;20093;-83
2023/10/17 13:06:30;;;;;;;10.63;2.45;;;;;;;13.15;47.03;94114.31;5062929;28;20227;-85
2023/10/17 13:08:56;;;;;;;17.27;2.50;;;;;;;13.15;46.99;94106.28;5061870;28;20028;-84
2023/10/17 13:11:26;;;;;;;13.18;2.95;;;;;;;13.20;47.13;94106.09;5061706;28;20020;-84
2023/10/17 13:13:52;;;;;;;12.50;2.03;;;;;;;13.19;47.53;94110.66;5061432;28;20017;-83
2023/10/17 13:16:20;;;;;;;11.70;2.58;;;;;;;13.22;47.94;94099.28;5062886;28;20028;-82
2023/10/17 13:18:47;;;;;;;5.07;2.03;;;;;;;13.23;48.22;94105.44;5061250;28;20041;-81
2023/10/17 13:21:14;;;;;;;8.07;2.92;;;;;;;13.21;48.35;94091.59;5062391;28;20025;-82
2023/10/17 13:23:40;;;;;;;15.57;3.42;;;;;;;13.17;49.04;94096.03;5062440;28;20029;-83
2023/10/17 13:26:11;;;;;;;11.10;2.97;;;;;;;13.12;49.46;94101.56;5061071;28;20215;-84
2023/10/17 13:28:37;;;;;;;11.60;3.83;;;;;;;13.08;50.64;94096.06;5062497;28;20027;-81
2023/10/17 13:31:14;;;;;;;6.93;3.10;;;;;;;13.00;50.52;94097.66;5062453;28;20020;-82
2023/10/17 13:33:42;;;;;;;11.60;3.42;;;;;;;12.94;50.79;94087.47;5062434;28;20033;-84
2023/10/17 13:36:10;;;;;;;11.88;4.15;;;;;;;12.84;51.21;94092.09;5062574;28;20119;-83
2023/10/17 13:38:37;;;;;;;7.95;3.08;;;;;;;12.81;51.41;94099.97;5065141;28;20352;-83
2023/10/17 13:41:04;;;;;;;11.50;3.47;;;;;;;12.75;51.00;94091.31;5065106;28;20037;-84
2023/10/17 13:43:30;;;;;;;8.45;3.28;;;;;;;12.72;50.64;94097.31;5066459;28;20214;-83
2023/10/17 13:45:55;;;;;;;9.50;3.17;;;;;;;12.62;50.76;94090.44;5066364;28;20027;-81
2023/10/17 13:48:21;;;;;;;11.95;3.80;;;;;;;12.59;51.25;94087.59;5066387;28;20044;-82
2023/10/17 13:50:46;;;;;;;12.35;2.90;;;;;;;12.58;51.69;94097.53;5066518;28;20028;-82
2023/10/17 13:53:16;;;;;;;19.90;2.80;;;;;;;12.61;51.54;94096.88;5066232;28;20323;-81
2023/10/17 13:55:42;;;;;;;15.75;2.80;;;;;;;12.62;51.52;94097.69;5066007;28;20017;-79